createdAt,value
2022-08-09T00:00:04.178Z,2.00
2022-08-09T00:02:33.390Z,1.90
2022-08-09T00:06:16.124Z,1.83
2022-08-09T00:07:49.749Z,1.90
2022-08-09T00:10:24.566Z,1.80
2022-08-09T00:12:53.355Z,1.90
2022-08-09T00:15:26.410Z,2.20
2022-08-09T00:18:06.043Z,2.05
2022-08-09T00:20:42.585Z,2.00
2022-08-09T00:23:55.606Z,2.22
2022-08-09T00:26:07.226Z,2.38
2022-08-09T00:28:35.261Z,2.30
2022-08-09T00:31:30.432Z,2.10
2022-08-09T00:33:53.420Z,1.98
2022-08-09T00:36:29.810Z,2.20
2022-08-09T00:38:58.939Z,2.07
2022-08-09T00:44:09.935Z,2.13
2022-08-09T00:44:27.127Z,2.22
2022-08-09T00:47:04.692Z,2.20
2022-08-09T00:49:37.166Z,1.80
2022-08-09T00:52:28.209Z,2.20
2022-08-09T00:54:57.715Z,2.10
2022-08-09T00:57:34.318Z,2.33
2022-08-09T01:00:21.763Z,2.38
2022-08-09T01:02:58.092Z,2.00
2022-08-09T01:05:53.456Z,2.10
2022-08-09T01:08:40.485Z,2.10
2022-08-09T01:11:25.911Z,2.30
2022-08-09T01:14:01.874Z,2.70
2022-08-09T01:16:36.765Z,2.17
2022-08-09T01:19:57.007Z,2.40
2022-08-09T01:23:01.215Z,2.63
2022-08-09T01:25:29.280Z,2.13
2022-08-09T01:28:01.374Z,2.30
2022-08-09T01:30:35.772Z,2.37
2022-08-09T01:33:33.202Z,2.37
2022-08-09T01:36:08.527Z,2.37
2022-08-09T01:38:40.094Z,2.23
2022-08-09T01:41:25.711Z,2.47
2022-08-09T01:44:01.788Z,2.58
2022-08-09T01:46:31.633Z,2.30
2022-08-09T01:49:09.615Z,2.50
2022-08-09T01:51:44.340Z,2.90
2022-08-09T01:54:23.596Z,2.47
2022-08-09T01:56:54.818Z,2.20
2022-08-09T01:59:24.941Z,2.30
2022-08-09T02:02:01.484Z,2.47
2022-08-09T02:04:31.878Z,2.50
2022-08-09T02:07:18.576Z,2.10
2022-08-09T02:10:04.492Z,2.57
2022-08-09T02:12:35.134Z,2.57
2022-08-09T02:15:06.435Z,2.30
2022-08-09T02:18:00.057Z,2.40
2022-08-09T02:20:33.937Z,2.57
2022-08-09T02:23:32.013Z,2.40
2022-08-09T02:26:26.944Z,2.60
2022-08-09T02:29:01.691Z,2.53
2022-08-09T02:31:34.205Z,2.50
2022-08-09T02:34:41.036Z,2.33
2022-08-09T02:37:15.072Z,2.90
2022-08-09T02:39:54.923Z,2.70
2022-08-09T02:42:27.814Z,2.43
2022-08-09T02:45:02.986Z,2.70
2022-08-09T02:47:33.886Z,2.40
2022-08-09T02:50:42.223Z,2.53
2022-08-09T02:53:35.034Z,2.80
2022-08-09T02:56:04.358Z,2.67
2022-08-09T02:58:37.399Z,2.37
2022-08-09T03:01:11.011Z,2.93
2022-08-09T03:04:17.503Z,2.87
2022-08-09T03:06:34.227Z,2.60
2022-08-09T03:09:05.980Z,2.63
2022-08-09T03:12:10.640Z,2.53
2022-08-09T03:14:28.293Z,2.90
2022-08-09T03:16:58.297Z,3.00
2022-08-09T03:19:59.384Z,2.63
2022-08-09T03:22:25.549Z,2.43
2022-08-09T03:25:06.695Z,2.53
2022-08-09T03:27:52.700Z,2.43
2022-08-09T03:30:29.903Z,2.27
2022-08-09T03:33:17.392Z,2.77
2022-08-09T03:36:15.831Z,2.60
2022-08-09T03:38:43.068Z,2.80
2022-08-09T03:41:14.859Z,3.10
2022-08-09T03:44:03.384Z,2.93
2022-08-09T03:46:33.394Z,3.00
2022-08-09T03:49:03.763Z,2.80
2022-08-09T03:51:55.296Z,2.57
2022-08-09T03:54:31.190Z,3.00
2022-08-09T03:57:02.148Z,2.97
2022-08-09T03:59:43.131Z,3.20
2022-08-09T04:02:26.658Z,2.90
2022-08-09T04:05:05.702Z,2.70
2022-08-09T04:07:52.297Z,3.03
2022-08-09T04:10:29.614Z,3.07
2022-08-09T04:13:00.970Z,2.90
2022-08-09T04:15:39.124Z,3.40
2022-08-09T04:18:18.167Z,3.00
2022-08-09T04:20:48.035Z,3.10
2022-08-09T04:23:17.280Z,3.10
2022-08-09T04:25:49.720Z,3.20
2022-08-09T04:28:33.300Z,3.17
2022-08-09T04:31:09.855Z,3.10
2022-08-09T04:33:47.452Z,3.30
2022-08-09T04:36:26.778Z,3.20
2022-08-09T04:38:56.367Z,3.67
2022-08-09T04:41:32.189Z,3.47
2022-08-09T04:44:06.536Z,6.57
2022-08-09T04:46:58.705Z,3.43
2022-08-09T04:49:52.099Z,2.80
2022-08-09T04:52:18.622Z,3.40
2022-08-09T04:54:51.643Z,3.10
2022-08-09T04:57:23.729Z,3.77
2022-08-09T04:59:55.809Z,3.43
2022-08-09T05:02:27.482Z,3.40
2022-08-09T05:04:56.157Z,3.10
2022-08-09T05:07:25.030Z,3.20
2022-08-09T05:09:55.934Z,3.47
2022-08-09T05:12:23.558Z,3.27
2022-08-09T05:14:51.169Z,3.07
2022-08-09T05:18:39.795Z,3.10
2022-08-09T05:20:07.270Z,3.10
2022-08-09T05:23:50.924Z,3.73
2022-08-09T05:25:24.722Z,3.23
2022-08-09T05:27:55.381Z,3.20
2022-08-09T05:30:23.606Z,3.00
2022-08-09T05:32:53.220Z,4.23
2022-08-09T05:35:21.997Z,3.30
2022-08-09T05:37:51.043Z,3.17
2022-08-09T05:40:18.994Z,3.50
2022-08-09T05:42:47.415Z,3.10
2022-08-09T05:45:15.136Z,3.37
2022-08-09T05:47:51.841Z,2.90
2022-08-09T05:50:50.602Z,3.47
2022-08-09T05:53:21.574Z,3.10
2022-08-09T05:55:59.623Z,3.40
2022-08-09T05:58:29.256Z,3.17
2022-08-09T06:00:57.107Z,3.60
2022-08-09T06:03:26.012Z,3.40
2022-08-09T06:06:11.656Z,2.80
2022-08-09T06:08:39.350Z,3.23
2022-08-09T06:11:16.652Z,3.20
2022-08-09T06:13:48.594Z,3.03
2022-08-09T06:16:16.483Z,3.50
2022-08-09T06:18:44.789Z,3.30
2022-08-09T06:21:12.395Z,3.47
2022-08-09T06:23:58.982Z,3.00
2022-08-09T06:26:30.257Z,3.10
2022-08-09T06:29:04.595Z,3.40
2022-08-09T06:31:40.022Z,3.27
2022-08-09T06:34:26.310Z,3.17
2022-08-09T06:36:59.801Z,3.10
2022-08-09T06:39:49.119Z,2.92
2022-08-09T06:42:20.133Z,3.13
2022-08-09T06:44:54.288Z,3.40
2022-08-09T06:47:23.799Z,3.53
2022-08-09T06:50:14.049Z,3.40
2022-08-09T06:52:49.081Z,3.13
2022-08-09T06:55:23.043Z,3.15
2022-08-09T06:58:01.495Z,3.10
2022-08-09T07:00:52.252Z,3.17
2022-08-09T07:03:27.701Z,3.00
2022-08-09T07:06:03.851Z,3.10
2022-08-09T07:08:34.615Z,2.85
2022-08-09T07:11:06.957Z,3.53
2022-08-09T07:13:45.248Z,2.95
2022-08-09T07:16:42.302Z,3.08
2022-08-09T07:19:15.577Z,2.75
2022-08-09T07:21:57.345Z,2.80
2022-08-09T07:24:32.748Z,2.78
2022-08-09T07:27:26.993Z,2.80
2022-08-09T07:30:00.016Z,3.00
2022-08-09T07:32:33.059Z,2.97
2022-08-09T07:35:10.814Z,3.10
2022-08-09T07:37:43.756Z,3.80
2022-08-09T07:40:18.681Z,3.10
2022-08-09T07:42:56.059Z,3.00
2022-08-09T07:45:39.696Z,2.70
2022-08-09T07:48:25.460Z,3.15
2022-08-09T07:51:10.172Z,3.15
2022-08-09T07:54:06.976Z,2.90
2022-08-09T07:56:50.034Z,3.05
2022-08-09T07:59:34.616Z,3.13
2022-08-09T08:02:08.837Z,2.55
2022-08-09T08:04:37.362Z,3.20
2022-08-09T08:07:15.371Z,2.72
2022-08-09T08:10:04.698Z,2.58
2022-08-09T08:12:43.599Z,2.83
2022-08-09T08:15:24.150Z,2.72
2022-08-09T08:17:57.987Z,2.90
2022-08-09T08:20:28.850Z,2.67
2022-08-09T08:23:03.756Z,2.50
2022-08-09T08:25:50.491Z,2.20
2022-08-09T08:28:35.044Z,2.72
2022-08-09T08:31:14.126Z,3.00
2022-08-09T08:33:53.204Z,2.40
2022-08-09T08:36:29.547Z,2.60
2022-08-09T08:39:02.676Z,2.55
2022-08-09T08:41:51.193Z,2.88
2022-08-09T08:44:26.899Z,2.40
2022-08-09T08:47:02.210Z,2.20
2022-08-09T08:49:46.835Z,2.50
2022-08-09T08:55:09.709Z,2.30
2022-08-09T08:57:38.030Z,2.20
2022-08-09T09:00:17.062Z,1.90
2022-08-09T09:02:57.330Z,2.50
2022-08-09T09:05:42.086Z,2.25
2022-08-09T09:08:29.857Z,2.08
2022-08-09T09:11:04.296Z,2.28
2022-08-09T09:13:55.076Z,2.15
2022-08-09T09:16:34.190Z,2.33
2022-08-09T09:22:11.296Z,2.05
2022-08-09T09:24:54.551Z,1.83
2022-08-09T09:28:03.541Z,1.90
2022-08-09T09:30:38.017Z,2.10
2022-08-09T09:33:13.787Z,1.98
2022-08-09T09:36:20.008Z,1.60
2022-08-09T09:38:57.421Z,2.10
2022-08-09T09:41:32.489Z,1.90
2022-08-09T09:44:10.641Z,1.75
2022-08-09T09:46:50.687Z,1.80
2022-08-09T09:49:23.635Z,1.60
2022-08-09T09:52:35.836Z,2.10
2022-08-09T09:55:24.347Z,1.52
2022-08-09T09:58:17.405Z,1.98
2022-08-09T10:00:53.735Z,1.90
2022-08-09T10:03:39.646Z,2.00
2022-08-09T10:06:07.922Z,2.97
2022-08-09T10:08:43.164Z,2.10
2022-08-09T10:12:00.840Z,1.98
2022-08-09T10:14:31.800Z,2.00
2022-08-09T10:17:38.917Z,1.80
2022-08-09T10:20:00.817Z,2.20
2022-08-09T10:22:34.179Z,2.00
2022-08-09T10:25:12.361Z,1.70
2022-08-09T10:27:56.655Z,1.73
2022-08-09T10:34:07.636Z,1.73
2022-08-09T10:36:09.758Z,1.70
2022-08-09T10:38:56.037Z,1.80
2022-08-09T10:41:25.582Z,1.85
2022-08-09T10:44:00.001Z,1.80
2022-08-09T10:47:00.712Z,1.50
2022-08-09T10:49:51.697Z,2.08
2022-08-09T10:52:34.287Z,1.65
2022-08-09T10:55:26.016Z,1.60
2022-08-09T10:57:55.874Z,1.42
2022-08-09T11:01:10.951Z,1.50
2022-08-09T11:03:49.871Z,1.80
2022-08-09T11:06:19.304Z,1.50
2022-08-09T11:09:15.440Z,1.55
2022-08-09T11:12:05.209Z,1.48
2022-08-09T11:14:45.126Z,2.00
2022-08-09T11:17:15.114Z,1.80
2022-08-09T11:20:10.561Z,1.75
2022-08-09T11:22:55.475Z,1.70
2022-08-09T11:25:36.282Z,1.98
2022-08-09T11:28:34.426Z,1.52
2022-08-09T11:31:34.138Z,2.08
2022-08-09T11:34:10.149Z,2.03
2022-08-09T11:36:42.878Z,2.55
2022-08-09T11:39:12.181Z,2.20
2022-08-09T11:41:40.962Z,2.20
2022-08-09T11:44:09.093Z,2.17
2022-08-09T11:46:54.923Z,1.80
2022-08-09T11:50:52.601Z,2.20
2022-08-09T11:53:21.400Z,2.05
2022-08-09T11:55:52.253Z,2.13
2022-08-09T11:58:30.356Z,2.05
2022-08-09T12:01:09.064Z,1.80
2022-08-09T12:03:56.911Z,2.08
2022-08-09T12:06:32.028Z,2.00
2022-08-09T12:09:19.377Z,2.00
2022-08-09T12:12:04.103Z,2.10
2022-08-09T12:14:36.883Z,1.70
2022-08-09T12:17:34.280Z,2.10
2022-08-09T12:20:03.800Z,1.90
2022-08-09T12:22:32.417Z,2.00
2022-08-09T12:25:17.435Z,2.30
2022-08-09T12:29:13.166Z,1.95
2022-08-09T12:30:36.246Z,1.92
2022-08-09T12:33:07.484Z,1.83
2022-08-09T12:35:40.816Z,1.65
2022-08-09T12:38:29.571Z,1.85
2022-08-09T12:41:07.202Z,2.38
2022-08-09T12:44:06.660Z,1.67
2022-08-09T12:46:27.384Z,1.85
2022-08-09T12:48:57.173Z,2.08
2022-08-09T12:51:52.610Z,2.08
2022-08-09T12:54:12.992Z,1.70
2022-08-09T12:56:54.012Z,1.48
2022-08-09T12:59:23.520Z,1.70
2022-08-09T13:02:02.018Z,1.30
2022-08-09T13:04:37.174Z,1.80
2022-08-09T13:07:11.938Z,1.60
2022-08-09T13:09:52.776Z,1.60
2022-08-09T13:12:28.273Z,2.10
2022-08-09T13:15:09.643Z,1.80
2022-08-09T13:17:58.627Z,1.58
2022-08-09T13:22:33.449Z,1.83
2022-08-09T13:24:16.892Z,1.63
2022-08-09T13:26:43.373Z,1.60
2022-08-09T13:29:42.373Z,1.70
2022-08-09T13:32:15.469Z,1.50
2022-08-09T13:34:47.963Z,1.65
2022-08-09T13:37:51.329Z,1.48
2022-08-09T13:41:55.682Z,1.50
2022-08-09T13:42:54.439Z,1.50
2022-08-09T13:45:32.164Z,1.65
2022-08-09T13:48:10.880Z,1.60
2022-08-09T13:50:38.864Z,1.50
2022-08-09T13:53:16.077Z,1.27
2022-08-09T13:55:44.785Z,1.60
2022-08-09T13:58:15.547Z,1.85
2022-08-09T14:00:50.484Z,1.75
2022-08-09T14:04:03.610Z,1.40
2022-08-09T14:06:25.632Z,1.45
2022-08-09T14:08:57.264Z,1.30
2022-08-09T14:11:26.472Z,1.70
2022-08-09T14:14:22.795Z,1.80
2022-08-09T14:16:42.028Z,1.48
2022-08-09T14:19:09.982Z,1.80
2022-08-09T14:21:40.626Z,1.55
2022-08-09T14:24:10.174Z,1.60
2022-08-09T14:26:38.636Z,1.80
2022-08-09T14:30:03.981Z,1.63
2022-08-09T14:32:04.522Z,1.63
2022-08-09T14:34:41.977Z,1.50
2022-08-09T14:37:12.752Z,1.80
2022-08-09T14:39:46.855Z,1.60
2022-08-09T14:42:31.879Z,1.77
2022-08-09T14:46:56.148Z,1.55
2022-08-09T14:47:56.968Z,1.65
2022-08-09T14:50:25.845Z,2.00
2022-08-09T14:52:54.908Z,1.80
2022-08-09T14:55:22.589Z,2.00
2022-08-09T14:57:55.792Z,1.83
2022-08-09T15:00:23.809Z,1.63
2022-08-09T15:02:55.503Z,1.70
2022-08-09T15:05:26.251Z,1.60
2022-08-09T15:07:56.871Z,1.40
2022-08-09T15:10:31.510Z,1.70
2022-08-09T15:13:01.519Z,2.42
2022-08-09T15:15:34.553Z,1.70
2022-08-09T15:18:14.386Z,1.70
2022-08-09T15:21:55.137Z,1.90
2022-08-09T15:24:06.064Z,1.55
2022-08-09T15:26:31.332Z,1.80
2022-08-09T15:29:02.457Z,1.80
2022-08-09T15:31:41.464Z,1.58
2022-08-09T15:34:27.394Z,2.00
2022-08-09T15:36:59.537Z,1.63
2022-08-09T15:39:34.429Z,1.52
2022-08-09T15:42:03.042Z,1.38
2022-08-09T15:44:32.609Z,1.50
2022-08-09T15:47:01.434Z,1.58
2022-08-09T15:49:32.885Z,1.63
2022-08-09T15:52:03.091Z,1.60
2022-08-09T15:54:44.606Z,1.77
2022-08-09T15:57:35.644Z,1.70
2022-08-09T16:00:14.155Z,1.77
2022-08-09T16:02:53.970Z,1.70
2022-08-09T16:05:26.428Z,1.67
2022-08-09T16:07:54.236Z,2.53
2022-08-09T16:10:38.582Z,2.15
2022-08-09T16:13:21.076Z,1.70
2022-08-09T16:16:09.956Z,2.05
2022-08-09T16:18:44.918Z,1.60
2022-08-09T16:21:17.587Z,2.22
2022-08-09T16:24:01.704Z,2.10
2022-08-09T16:26:35.101Z,2.20
2022-08-09T16:29:11.619Z,2.13
2022-08-09T16:32:18.258Z,2.08
2022-08-09T16:34:53.535Z,2.17
2022-08-09T16:37:55.019Z,1.60
2022-08-09T16:40:14.388Z,1.60
2022-08-09T16:42:59.009Z,1.63
2022-08-09T16:45:28.419Z,1.75
2022-08-09T16:48:39.893Z,1.83
2022-08-09T16:50:59.383Z,1.38
2022-08-09T16:53:37.422Z,1.55
2022-08-09T16:56:10.403Z,1.60
2022-08-09T16:58:42.729Z,1.38
2022-08-09T17:01:19.379Z,1.40
2022-08-09T17:03:51.393Z,2.95
2022-08-09T17:06:31.991Z,1.90
2022-08-09T17:09:12.132Z,1.90
2022-08-09T17:15:59.453Z,2.10
2022-08-09T17:18:15.230Z,2.20
2022-08-09T17:20:52.518Z,2.47
2022-08-09T17:24:05.743Z,2.60
2022-08-09T17:26:14.208Z,2.20
2022-08-09T17:28:45.263Z,2.10
2022-08-09T17:31:12.959Z,2.15
2022-08-09T17:33:43.803Z,2.00
2022-08-09T17:36:14.674Z,2.33
2022-08-09T17:38:57.472Z,2.63
2022-08-09T17:41:38.725Z,2.75
2022-08-09T17:44:38.659Z,2.47
2022-08-09T17:46:55.687Z,2.28
2022-08-09T17:49:25.483Z,2.75
2022-08-09T17:51:58.422Z,1.85
2022-08-09T17:54:28.275Z,1.77
2022-08-09T17:56:57.589Z,1.70
2022-08-09T17:59:37.943Z,1.90
2022-08-09T18:02:21.482Z,1.33
2022-08-09T18:04:53.796Z,1.60
2022-08-09T18:07:23.622Z,1.70
2022-08-09T18:10:04.462Z,2.00
2022-08-09T18:12:40.728Z,2.33
2022-08-09T18:15:21.108Z,1.65
2022-08-09T18:18:08.762Z,1.98
2022-08-09T18:21:10.458Z,1.85
2022-08-09T18:24:11.406Z,2.00
2022-08-09T18:26:28.954Z,1.70
2022-08-09T18:30:42.420Z,2.00
2022-08-09T18:31:51.270Z,1.92
2022-08-09T18:34:24.403Z,1.52
2022-08-09T18:36:53.497Z,1.58
2022-08-09T18:39:25.620Z,1.80
2022-08-09T18:42:08.103Z,1.55
2022-08-09T18:44:37.553Z,1.80
2022-08-09T18:47:15.852Z,2.20
2022-08-09T18:49:46.509Z,1.80
2022-08-09T18:52:18.635Z,2.28
2022-08-09T18:54:53.625Z,1.70
2022-08-09T18:57:22.807Z,1.60
2022-08-09T18:59:55.663Z,1.90
2022-08-09T19:02:31.913Z,1.60
2022-08-09T19:05:19.885Z,1.77
2022-08-09T19:08:04.786Z,1.80
2022-08-09T19:10:39.312Z,1.75
2022-08-09T19:13:19.204Z,1.95
2022-08-09T19:15:56.567Z,1.75
2022-08-09T19:18:33.368Z,1.80
2022-08-09T19:21:08.791Z,1.60
2022-08-09T19:24:37.091Z,1.90
2022-08-09T19:26:31.041Z,2.22
2022-08-09T19:29:03.329Z,2.05
2022-08-09T19:31:45.053Z,1.80
2022-08-09T19:34:22.341Z,2.25
2022-08-09T19:36:57.722Z,2.00
2022-08-09T19:40:02.413Z,1.75
2022-08-09T19:42:19.614Z,1.70
2022-08-09T19:44:50.644Z,1.90
2022-08-09T19:47:22.709Z,1.80
2022-08-09T19:50:06.598Z,1.90
2022-08-09T19:52:51.492Z,2.20
2022-08-09T19:55:25.673Z,1.88
2022-08-09T19:57:58.554Z,1.60
2022-08-09T20:00:26.320Z,1.98
2022-08-09T20:04:11.124Z,1.80
2022-08-09T20:05:46.428Z,2.00
2022-08-09T20:08:25.003Z,1.92
2022-08-09T20:11:04.402Z,2.20
2022-08-09T20:13:37.332Z,3.42
2022-08-09T20:16:34.769Z,4.85
2022-08-09T20:19:41.933Z,4.82
2022-08-09T20:21:56.076Z,3.83
2022-08-09T20:24:29.561Z,2.90
2022-08-09T20:27:05.625Z,2.72
2022-08-09T20:29:39.748Z,2.00
2022-08-09T20:32:29.333Z,2.15
2022-08-09T20:34:56.764Z,2.20
2022-08-09T20:38:18.992Z,2.00
2022-08-09T20:40:19.009Z,2.00
2022-08-09T20:43:00.298Z,1.90
2022-08-09T20:45:58.406Z,2.00
2022-08-09T20:48:30.833Z,1.98
2022-08-09T20:51:00.789Z,2.30
2022-08-09T20:53:36.371Z,1.92
2022-08-09T20:56:08.872Z,2.17
2022-08-09T20:58:38.140Z,2.00
2022-08-09T21:01:32.710Z,2.13
2022-08-09T21:05:48.148Z,2.40
2022-08-09T21:06:44.198Z,2.00
2022-08-09T21:09:13.941Z,2.10
2022-08-09T21:14:31.311Z,1.90
2022-08-09T21:17:00.912Z,2.85
2022-08-09T21:20:19.214Z,2.10
2022-08-09T21:22:36.009Z,2.15
2022-08-09T21:25:22.882Z,2.13
2022-08-09T21:27:53.404Z,2.40
2022-08-09T21:30:23.874Z,2.28
2022-08-09T21:32:52.996Z,1.95
2022-08-09T21:35:21.727Z,2.28
2022-08-09T21:37:59.923Z,2.08
2022-08-09T21:40:30.252Z,2.10
2022-08-09T21:42:59.539Z,2.20
2022-08-09T21:45:28.525Z,2.30
2022-08-09T21:47:58.922Z,2.22
2022-08-09T21:50:36.076Z,2.38
2022-08-09T21:53:24.065Z,2.20
2022-08-09T21:55:55.692Z,2.10
2022-08-09T21:58:30.985Z,2.03
2022-08-09T22:00:59.123Z,2.35
2022-08-09T22:03:27.211Z,2.17
2022-08-09T22:05:55.467Z,2.45
2022-08-09T22:08:25.763Z,2.17
2022-08-09T22:11:49.205Z,2.20
2022-08-09T22:13:43.895Z,2.10
2022-08-09T22:16:12.149Z,1.75
2022-08-09T22:18:53.022Z,2.08
2022-08-09T22:21:24.825Z,2.72
2022-08-09T22:23:59.282Z,2.40
2022-08-09T22:26:35.144Z,2.22
2022-08-09T22:29:09.480Z,2.22
2022-08-09T22:31:50.446Z,2.08
2022-08-09T22:34:26.988Z,2.70
2022-08-09T22:36:56.083Z,3.00
2022-08-09T22:39:55.565Z,2.50
2022-08-09T22:42:21.415Z,2.22
2022-08-09T22:45:00.346Z,2.28
2022-08-09T22:48:15.793Z,2.25
2022-08-09T22:50:29.900Z,2.17
2022-08-09T22:52:58.747Z,2.20
2022-08-09T22:55:39.496Z,2.05
2022-08-09T22:58:32.524Z,2.20
2022-08-09T23:01:06.021Z,2.08
2022-08-09T23:04:03.935Z,2.33
2022-08-09T23:06:34.697Z,1.92
2022-08-09T23:09:06.283Z,2.58
2022-08-09T23:11:34.102Z,2.13
2022-08-09T23:14:03.338Z,1.90
2022-08-09T23:16:31.953Z,2.35
2022-08-09T23:19:02.317Z,2.20
2022-08-09T23:21:35.756Z,2.50
2022-08-09T23:24:07.581Z,2.10
2022-08-09T23:26:39.349Z,2.20
2022-08-09T23:29:13.846Z,1.90
2022-08-09T23:31:42.034Z,2.10
2022-08-09T23:34:09.700Z,2.28
2022-08-09T23:36:37.608Z,2.33
2022-08-09T23:39:07.124Z,2.28
2022-08-09T23:41:35.329Z,2.22
2022-08-09T23:44:03.838Z,2.50
2022-08-09T23:46:32.607Z,2.20
2022-08-09T23:49:00.960Z,2.42
2022-08-09T23:51:31.674Z,2.30
2022-08-09T23:54:02.155Z,2.42
2022-08-09T23:56:53.082Z,2.17
2022-08-09T23:59:23.124Z,2.22
